Etusivu
METAR-TAF:

METAR-TAF

Lentoasemat :

Kairo, Egypti

Kairon kansainvälinen lentoasema

Leveyspiiri: 30-08N, Pituuspiiri: 031-24E, korkeus merenpinnasta: 64 m

Tämänhetkinen sää

Tämä raportti tehtiin 34 minuuttia sitten, kello 22.00 UTC
Tuuli 8 kn koillisesta
Lämpötila 27°C
Kosteus 74%
Ilmanpaine 1013 hPa
Näkyvyys: 6000 m

METAR: HECA 192200Z 04008KT 6000 NSC 27/22 Q1013 NOSIG

Aika: 00:34 (22:34 UTC)

Sääennuste

Tämä raportti tehtiin 5 tuntia ja 34 minuuttia sitten, kello 17.00 UTC
Ennuste voimassa 19. päivästä klo 18 UTC - 20. päivään klo 24 UTC
Tuuli 10 kn pohjoisesta
Näkyvyys 10 km tai enemmän
ei pilviä alle 1500 m:ssä eikä cumulonimbus-pilviä
Ajoittain
19. päivästä klo 22 UTC - 20. päivään klo 08 UTC
Tuuli 3 kn eri suunnista
Näkyvyys: 6000 m
Ajoittain
20. päivästä klo 03 UTC - 20. päivään klo 06 UTC
Näkyvyys: 4000 m
utua

TAF: HECA 191700Z 1918/2024 35010KT CAVOK TEMPO 1922/2008 VRB03KT 6000 NSC TEMPO 2003/2006 4000 BR NSC

Säähavainnot ja -ennusteet yli 4000 lentoasemalta (METAR- ja TAF-raportit).

Käytössä olevat sääasemat on merkitty karttaan keltaisilla ja punaisilla pisteillä.

Aseta hiiri pisteen päälle nähdäksesi sääaseman nimen.

Klikkaa sitten nähdäksesi säähavainnot ja -ennusteet.

Kartan vaihtaminen: klikkaa mustalla rastilla varustettuja vihreitä pisteitä, niin voit zoomata sisään; viivalla varustettua vihreää pistettä, niin voit zoomata ulos tai vihreitä nuolia, niin pääset viereisille kartoille.


METAR-TAF: